sensor_id;sensor_type;location;lat;lon;timestamp;temperature;humidity
5278;DHT22;2662;51.194;6.614;2024-02-23T00:02:08;7.30;99.90
5278;DHT22;2662;51.194;6.614;2024-02-23T00:04:35;7.30;99.90
5278;DHT22;2662;51.194;6.614;2024-02-23T00:07:04;7.20;99.90
5278;DHT22;2662;51.194;6.614;2024-02-23T00:09:31;7.10;99.90
5278;DHT22;2662;51.194;6.614;2024-02-23T00:11:58;7.00;99.90
5278;DHT22;2662;51.194;6.614;2024-02-23T00:14:25;6.80;99.90
5278;DHT22;2662;51.194;6.614;2024-02-23T00:16:51;6.70;99.90
5278;DHT22;2662;51.194;6.614;2024-02-23T00:19:18;6.70;99.90
5278;DHT22;2662;51.194;6.614;2024-02-23T00:21:46;6.70;99.90
5278;DHT22;2662;51.194;6.614;2024-02-23T00:24:17;6.60;99.90
5278;DHT22;2662;51.194;6.614;2024-02-23T00:26:46;6.60;99.90
5278;DHT22;2662;51.194;6.614;2024-02-23T00:29:13;6.60;99.90
5278;DHT22;2662;51.194;6.614;2024-02-23T00:31:40;6.60;99.90
5278;DHT22;2662;51.194;6.614;2024-02-23T00:34:07;6.60;99.90
5278;DHT22;2662;51.194;6.614;2024-02-23T00:36:36;6.50;99.90
5278;DHT22;2662;51.194;6.614;2024-02-23T00:39:06;6.50;99.90
5278;DHT22;2662;51.194;6.614;2024-02-23T00:41:35;6.50;99.90
5278;DHT22;2662;51.194;6.614;2024-02-23T00:44:04;6.50;99.90
5278;DHT22;2662;51.194;6.614;2024-02-23T00:46:31;6.50;99.90
5278;DHT22;2662;51.194;6.614;2024-02-23T00:48:58;6.50;99.90
5278;DHT22;2662;51.194;6.614;2024-02-23T00:51:25;6.40;99.90
5278;DHT22;2662;51.194;6.614;2024-02-23T00:53:54;6.50;99.90
5278;DHT22;2662;51.194;6.614;2024-02-23T00:56:20;6.40;99.90
5278;DHT22;2662;51.194;6.614;2024-02-23T00:58:49;6.50;99.90
5278;DHT22;2662;51.194;6.614;2024-02-23T01:01:15;6.40;99.90
5278;DHT22;2662;51.194;6.614;2024-02-23T01:03:42;6.40;99.90
5278;DHT22;2662;51.194;6.614;2024-02-23T01:06:11;6.40;99.90
5278;DHT22;2662;51.194;6.614;2024-02-23T01:08:38;6.40;99.90
5278;DHT22;2662;51.194;6.614;2024-02-23T01:11:05;6.40;99.90
5278;DHT22;2662;51.194;6.614;2024-02-23T01:13:32;6.50;99.90
5278;DHT22;2662;51.194;6.614;2024-02-23T01:16:00;6.40;99.90
5278;DHT22;2662;51.194;6.614;2024-02-23T01:18:29;6.40;99.90
5278;DHT22;2662;51.194;6.614;2024-02-23T01:20:56;6.50;99.90
5278;DHT22;2662;51.194;6.614;2024-02-23T01:23:23;6.60;99.90
5278;DHT22;2662;51.194;6.614;2024-02-23T01:25:50;6.60;99.90
5278;DHT22;2662;51.194;6.614;2024-02-23T01:28:19;6.60;99.90
5278;DHT22;2662;51.194;6.614;2024-02-23T01:30:45;6.70;99.90
5278;DHT22;2662;51.194;6.614;2024-02-23T01:33:14;6.80;99.90
5278;DHT22;2662;51.194;6.614;2024-02-23T01:35:40;6.80;99.90
5278;DHT22;2662;51.194;6.614;2024-02-23T01:38:07;6.80;99.90
5278;DHT22;2662;51.194;6.614;2024-02-23T01:40:34;6.70;99.90
5278;DHT22;2662;51.194;6.614;2024-02-23T01:43:02;6.70;99.90
5278;DHT22;2662;51.194;6.614;2024-02-23T01:45:29;6.60;99.90
5278;DHT22;2662;51.194;6.614;2024-02-23T01:48:00;6.60;99.90
5278;DHT22;2662;51.194;6.614;2024-02-23T01:50:29;6.60;99.90
5278;DHT22;2662;51.194;6.614;2024-02-23T01:53:01;6.50;99.90
5278;DHT22;2662;51.194;6.614;2024-02-23T01:55:29;6.50;99.90
5278;DHT22;2662;51.194;6.614;2024-02-23T01:57:56;6.40;99.90
5278;DHT22;2662;51.194;6.614;2024-02-23T02:00:23;6.40;99.90
5278;DHT22;2662;51.194;6.614;2024-02-23T02:02:50;6.40;99.90
5278;DHT22;2662;51.194;6.614;2024-02-23T02:05:17;6.40;99.90
5278;DHT22;2662;51.194;6.614;2024-02-23T02:07:47;6.50;99.90
5278;DHT22;2662;51.194;6.614;2024-02-23T02:10:16;6.50;99.90
5278;DHT22;2662;51.194;6.614;2024-02-23T02:12:43;6.60;99.90
5278;DHT22;2662;51.194;6.614;2024-02-23T02:15:10;6.60;99.90
5278;DHT22;2662;51.194;6.614;2024-02-23T02:17:37;6.70;99.90
5278;DHT22;2662;51.194;6.614;2024-02-23T02:20:06;6.60;99.90
5278;DHT22;2662;51.194;6.614;2024-02-23T02:22:35;6.60;99.90
5278;DHT22;2662;51.194;6.614;2024-02-23T02:25:04;6.50;99.90
5278;DHT22;2662;51.194;6.614;2024-02-23T02:27:32;6.50;99.90
5278;DHT22;2662;51.194;6.614;2024-02-23T02:29:59;6.50;99.90
5278;DHT22;2662;51.194;6.614;2024-02-23T02:32:26;6.40;99.90
5278;DHT22;2662;51.194;6.614;2024-02-23T02:34:53;6.40;99.90
5278;DHT22;2662;51.194;6.614;2024-02-23T02:37:21;6.30;99.90
5278;DHT22;2662;51.194;6.614;2024-02-23T02:39:49;6.30;99.90
5278;DHT22;2662;51.194;6.614;2024-02-23T02:42:17;6.30;99.90
5278;DHT22;2662;51.194;6.614;2024-02-23T02:44:44;6.30;99.90
5278;DHT22;2662;51.194;6.614;2024-02-23T02:47:11;6.20;99.90
5278;DHT22;2662;51.194;6.614;2024-02-23T02:49:39;6.20;99.90
5278;DHT22;2662;51.194;6.614;2024-02-23T02:52:07;6.20;99.90
5278;DHT22;2662;51.194;6.614;2024-02-23T02:54:34;6.20;99.90
5278;DHT22;2662;51.194;6.614;2024-02-23T02:57:01;6.20;99.90
5278;DHT22;2662;51.194;6.614;2024-02-23T02:59:33;6.20;99.90
5278;DHT22;2662;51.194;6.614;2024-02-23T03:02:00;6.30;99.90
5278;DHT22;2662;51.194;6.614;2024-02-23T03:04:27;6.30;99.90
5278;DHT22;2662;51.194;6.614;2024-02-23T03:06:54;6.30;99.90
5278;DHT22;2662;51.194;6.614;2024-02-23T03:09:21;6.30;99.90
5278;DHT22;2662;51.194;6.614;2024-02-23T03:11:48;6.30;99.90
5278;DHT22;2662;51.194;6.614;2024-02-23T03:14:15;6.30;99.90
5278;DHT22;2662;51.194;6.614;2024-02-23T03:16:45;6.30;99.90
5278;DHT22;2662;51.194;6.614;2024-02-23T03:19:15;6.30;99.90
5278;DHT22;2662;51.194;6.614;2024-02-23T03:21:46;6.20;99.90
5278;DHT22;2662;51.194;6.614;2024-02-23T03:24:12;6.20;99.90
5278;DHT22;2662;51.194;6.614;2024-02-23T03:26:39;6.20;99.90
5278;DHT22;2662;51.194;6.614;2024-02-23T03:29:06;6.20;99.90
5278;DHT22;2662;51.194;6.614;2024-02-23T03:31:33;6.20;99.90
5278;DHT22;2662;51.194;6.614;2024-02-23T03:34:02;6.20;99.90
5278;DHT22;2662;51.194;6.614;2024-02-23T03:36:29;6.20;99.90
5278;DHT22;2662;51.194;6.614;2024-02-23T03:38:56;6.20;99.90
5278;DHT22;2662;51.194;6.614;2024-02-23T03:41:23;6.20;99.90
5278;DHT22;2662;51.194;6.614;2024-02-23T03:43:50;6.20;99.90
5278;DHT22;2662;51.194;6.614;2024-02-23T03:46:16;6.20;99.90
5278;DHT22;2662;51.194;6.614;2024-02-23T03:48:45;6.10;99.90
5278;DHT22;2662;51.194;6.614;2024-02-23T03:51:15;6.10;99.90
5278;DHT22;2662;51.194;6.614;2024-02-23T03:53:42;6.10;99.90
5278;DHT22;2662;51.194;6.614;2024-02-23T03:56:08;6.10;99.90
5278;DHT22;2662;51.194;6.614;2024-02-23T03:58:37;6.10;99.90
5278;DHT22;2662;51.194;6.614;2024-02-23T04:01:04;6.10;99.90
5278;DHT22;2662;51.194;6.614;2024-02-23T04:03:31;6.10;99.90
5278;DHT22;2662;51.194;6.614;2024-02-23T04:05:59;6.10;99.90
5278;DHT22;2662;51.194;6.614;2024-02-23T04:08:27;6.10;99.90
5278;DHT22;2662;51.194;6.614;2024-02-23T04:10:54;6.10;99.90
5278;DHT22;2662;51.194;6.614;2024-02-23T04:13:21;6.10;99.90
5278;DHT22;2662;51.194;6.614;2024-02-23T04:15:48;6.10;99.90
5278;DHT22;2662;51.194;6.614;2024-02-23T04:18:15;6.10;99.90
5278;DHT22;2662;51.194;6.614;2024-02-23T04:20:42;6.10;99.90
5278;DHT22;2662;51.194;6.614;2024-02-23T04:23:09;6.10;99.90
5278;DHT22;2662;51.194;6.614;2024-02-23T04:25:37;6.10;99.90
5278;DHT22;2662;51.194;6.614;2024-02-23T04:28:04;6.20;99.90
5278;DHT22;2662;51.194;6.614;2024-02-23T04:30:33;6.20;99.90
5278;DHT22;2662;51.194;6.614;2024-02-23T04:32:59;6.20;99.90
5278;DHT22;2662;51.194;6.614;2024-02-23T04:35:28;6.20;99.90
5278;DHT22;2662;51.194;6.614;2024-02-23T04:37:55;6.20;99.90
5278;DHT22;2662;51.194;6.614;2024-02-23T04:40:22;6.30;99.90
5278;DHT22;2662;51.194;6.614;2024-02-23T04:42:50;6.30;99.90
5278;DHT22;2662;51.194;6.614;2024-02-23T04:45:18;6.40;99.90
5278;DHT22;2662;51.194;6.614;2024-02-23T04:47:45;6.50;99.90
5278;DHT22;2662;51.194;6.614;2024-02-23T04:50:12;6.60;99.90
5278;DHT22;2662;51.194;6.614;2024-02-23T04:52:40;6.60;99.90
5278;DHT22;2662;51.194;6.614;2024-02-23T04:55:07;6.70;99.90
5278;DHT22;2662;51.194;6.614;2024-02-23T04:57:36;6.80;99.90
5278;DHT22;2662;51.194;6.614;2024-02-23T05:00:08;6.70;99.90
5278;DHT22;2662;51.194;6.614;2024-02-23T05:02:34;6.70;99.90
5278;DHT22;2662;51.194;6.614;2024-02-23T05:05:02;6.80;99.90
5278;DHT22;2662;51.194;6.614;2024-02-23T05:07:30;6.80;99.90
5278;DHT22;2662;51.194;6.614;2024-02-23T05:09:57;6.70;99.90
5278;DHT22;2662;51.194;6.614;2024-02-23T05:12:24;6.70;99.90
5278;DHT22;2662;51.194;6.614;2024-02-23T05:14:51;6.60;99.90
5278;DHT22;2662;51.194;6.614;2024-02-23T05:17:19;6.60;99.90
5278;DHT22;2662;51.194;6.614;2024-02-23T05:19:46;6.60;99.90
5278;DHT22;2662;51.194;6.614;2024-02-23T05:22:13;6.50;99.90
5278;DHT22;2662;51.194;6.614;2024-02-23T05:24:40;6.50;99.90
5278;DHT22;2662;51.194;6.614;2024-02-23T05:27:09;6.50;99.90
5278;DHT22;2662;51.194;6.614;2024-02-23T05:29:36;6.50;99.90
5278;DHT22;2662;51.194;6.614;2024-02-23T05:32:04;6.50;99.90
5278;DHT22;2662;51.194;6.614;2024-02-23T05:34:32;6.60;99.90
5278;DHT22;2662;51.194;6.614;2024-02-23T05:37:01;6.60;99.90
5278;DHT22;2662;51.194;6.614;2024-02-23T05:39:28;6.70;99.90
5278;DHT22;2662;51.194;6.614;2024-02-23T05:41:57;6.80;99.90
5278;DHT22;2662;51.194;6.614;2024-02-23T05:44:25;6.80;99.90
5278;DHT22;2662;51.194;6.614;2024-02-23T05:46:54;6.90;99.90
5278;DHT22;2662;51.194;6.614;2024-02-23T05:49:20;7.00;99.90
5278;DHT22;2662;51.194;6.614;2024-02-23T05:51:49;7.00;99.90
5278;DHT22;2662;51.194;6.614;2024-02-23T05:54:16;7.10;99.90
5278;DHT22;2662;51.194;6.614;2024-02-23T05:56:44;7.20;99.90
5278;DHT22;2662;51.194;6.614;2024-02-23T05:59:11;7.20;99.90
5278;DHT22;2662;51.194;6.614;2024-02-23T06:01:40;7.30;99.90
5278;DHT22;2662;51.194;6.614;2024-02-23T06:04:07;7.30;99.90
5278;DHT22;2662;51.194;6.614;2024-02-23T06:06:35;7.30;99.90
5278;DHT22;2662;51.194;6.614;2024-02-23T06:09:04;7.30;99.90
5278;DHT22;2662;51.194;6.614;2024-02-23T06:11:31;7.30;99.90
5278;DHT22;2662;51.194;6.614;2024-02-23T06:13:58;7.30;99.90
5278;DHT22;2662;51.194;6.614;2024-02-23T06:16:25;7.40;99.90
5278;DHT22;2662;51.194;6.614;2024-02-23T06:18:51;7.30;99.90
5278;DHT22;2662;51.194;6.614;2024-02-23T06:21:18;7.40;99.90
5278;DHT22;2662;51.194;6.614;2024-02-23T06:23:45;7.30;99.90
5278;DHT22;2662;51.194;6.614;2024-02-23T06:26:13;7.30;99.90
5278;DHT22;2662;51.194;6.614;2024-02-23T06:28:42;7.20;99.90
5278;DHT22;2662;51.194;6.614;2024-02-23T06:31:10;7.30;99.90
5278;DHT22;2662;51.194;6.614;2024-02-23T06:33:37;7.30;99.90
5278;DHT22;2662;51.194;6.614;2024-02-23T06:36:04;7.30;99.90
5278;DHT22;2662;51.194;6.614;2024-02-23T06:38:34;7.40;99.90
5278;DHT22;2662;51.194;6.614;2024-02-23T06:41:01;7.50;99.90
5278;DHT22;2662;51.194;6.614;2024-02-23T06:43:30;7.50;99.90
5278;DHT22;2662;51.194;6.614;2024-02-23T06:46:03;7.60;99.90
5278;DHT22;2662;51.194;6.614;2024-02-23T06:48:30;7.50;99.90
5278;DHT22;2662;51.194;6.614;2024-02-23T06:50:57;7.50;99.90
5278;DHT22;2662;51.194;6.614;2024-02-23T06:53:24;7.60;99.90
5278;DHT22;2662;51.194;6.614;2024-02-23T06:55:54;7.60;99.90
5278;DHT22;2662;51.194;6.614;2024-02-23T06:58:21;7.70;99.90
5278;DHT22;2662;51.194;6.614;2024-02-23T07:00:49;7.70;99.90
5278;DHT22;2662;51.194;6.614;2024-02-23T07:03:16;7.70;99.90
5278;DHT22;2662;51.194;6.614;2024-02-23T07:05:43;7.70;99.90
5278;DHT22;2662;51.194;6.614;2024-02-23T07:08:10;7.70;99.90
5278;DHT22;2662;51.194;6.614;2024-02-23T07:10:37;7.70;99.90
5278;DHT22;2662;51.194;6.614;2024-02-23T07:13:05;7.60;99.90
5278;DHT22;2662;51.194;6.614;2024-02-23T07:15:32;7.70;99.90
5278;DHT22;2662;51.194;6.614;2024-02-23T07:18:03;7.70;99.90
5278;DHT22;2662;51.194;6.614;2024-02-23T07:20:30;7.80;99.90
5278;DHT22;2662;51.194;6.614;2024-02-23T07:22:57;7.90;99.90
5278;DHT22;2662;51.194;6.614;2024-02-23T07:25:24;7.90;99.90
5278;DHT22;2662;51.194;6.614;2024-02-23T07:27:53;7.90;99.90
5278;DHT22;2662;51.194;6.614;2024-02-23T07:30:20;7.90;99.90
5278;DHT22;2662;51.194;6.614;2024-02-23T07:32:48;7.90;99.90
5278;DHT22;2662;51.194;6.614;2024-02-23T07:35:16;8.00;99.90
5278;DHT22;2662;51.194;6.614;2024-02-23T07:37:43;8.00;99.90
5278;DHT22;2662;51.194;6.614;2024-02-23T07:40:11;8.10;99.90
5278;DHT22;2662;51.194;6.614;2024-02-23T07:42:38;8.30;99.90
5278;DHT22;2662;51.194;6.614;2024-02-23T07:45:06;8.80;99.90
5278;DHT22;2662;51.194;6.614;2024-02-23T07:47:35;9.50;99.90
5278;DHT22;2662;51.194;6.614;2024-02-23T07:50:02;10.20;99.90
5278;DHT22;2662;51.194;6.614;2024-02-23T07:52:32;10.40;99.90
5278;DHT22;2662;51.194;6.614;2024-02-23T07:54:59;10.50;99.90
5278;DHT22;2662;51.194;6.614;2024-02-23T07:57:28;10.60;99.90
5278;DHT22;2662;51.194;6.614;2024-02-23T07:59:56;10.30;99.90
5278;DHT22;2662;51.194;6.614;2024-02-23T08:02:23;10.40;99.90
5278;DHT22;2662;51.194;6.614;2024-02-23T08:04:53;11.00;99.90
5278;DHT22;2662;51.194;6.614;2024-02-23T08:07:20;11.10;99.90
5278;DHT22;2662;51.194;6.614;2024-02-23T08:09:49;10.80;99.90
5278;DHT22;2662;51.194;6.614;2024-02-23T08:12:16;11.50;99.90
5278;DHT22;2662;51.194;6.614;2024-02-23T08:14:43;12.00;99.90
5278;DHT22;2662;51.194;6.614;2024-02-23T08:17:11;11.50;99.90
5278;DHT22;2662;51.194;6.614;2024-02-23T08:19:38;11.00;99.90
5278;DHT22;2662;51.194;6.614;2024-02-23T08:22:05;10.50;99.90
5278;DHT22;2662;51.194;6.614;2024-02-23T08:24:32;10.20;99.90
5278;DHT22;2662;51.194;6.614;2024-02-23T08:27:02;10.00;99.90
5278;DHT22;2662;51.194;6.614;2024-02-23T08:29:29;9.80;99.90
5278;DHT22;2662;51.194;6.614;2024-02-23T08:31:58;9.50;99.90
5278;DHT22;2662;51.194;6.614;2024-02-23T08:34:25;9.40;99.90
5278;DHT22;2662;51.194;6.614;2024-02-23T08:36:52;9.30;99.90
5278;DHT22;2662;51.194;6.614;2024-02-23T08:39:19;9.10;99.90
5278;DHT22;2662;51.194;6.614;2024-02-23T08:41:49;9.10;99.90
5278;DHT22;2662;51.194;6.614;2024-02-23T08:44:18;9.10;99.90
5278;DHT22;2662;51.194;6.614;2024-02-23T08:46:46;9.70;99.90
5278;DHT22;2662;51.194;6.614;2024-02-23T08:49:13;10.30;99.90
5278;DHT22;2662;51.194;6.614;2024-02-23T08:51:40;10.30;99.90
5278;DHT22;2662;51.194;6.614;2024-02-23T08:54:07;10.00;99.90
5278;DHT22;2662;51.194;6.614;2024-02-23T08:56:37;9.80;99.90
5278;DHT22;2662;51.194;6.614;2024-02-23T08:59:04;9.80;99.90
5278;DHT22;2662;51.194;6.614;2024-02-23T09:01:33;11.00;99.90
5278;DHT22;2662;51.194;6.614;2024-02-23T09:04:00;12.50;99.90
5278;DHT22;2662;51.194;6.614;2024-02-23T09:06:29;13.40;99.90
5278;DHT22;2662;51.194;6.614;2024-02-23T09:09:01;12.80;99.90
5278;DHT22;2662;51.194;6.614;2024-02-23T09:11:28;12.30;99.90
5278;DHT22;2662;51.194;6.614;2024-02-23T09:13:56;11.80;99.90
5278;DHT22;2662;51.194;6.614;2024-02-23T09:16:24;11.20;99.90
5278;DHT22;2662;51.194;6.614;2024-02-23T09:18:52;11.00;99.90
5278;DHT22;2662;51.194;6.614;2024-02-23T09:21:19;10.70;99.90
5278;DHT22;2662;51.194;6.614;2024-02-23T09:23:46;10.70;99.90
5278;DHT22;2662;51.194;6.614;2024-02-23T09:26:16;10.70;99.90
5278;DHT22;2662;51.194;6.614;2024-02-23T09:28:43;10.60;99.90
5278;DHT22;2662;51.194;6.614;2024-02-23T09:31:11;10.70;99.90
5278;DHT22;2662;51.194;6.614;2024-02-23T09:33:40;10.50;99.90
5278;DHT22;2662;51.194;6.614;2024-02-23T09:36:08;10.30;99.90
5278;DHT22;2662;51.194;6.614;2024-02-23T09:38:35;10.20;99.90
5278;DHT22;2662;51.194;6.614;2024-02-23T09:41:03;10.00;99.90
5278;DHT22;2662;51.194;6.614;2024-02-23T09:43:30;9.90;99.90
5278;DHT22;2662;51.194;6.614;2024-02-23T09:45:59;9.90;99.90
5278;DHT22;2662;51.194;6.614;2024-02-23T09:48:26;9.90;99.90
5278;DHT22;2662;51.194;6.614;2024-02-23T09:50:55;10.00;99.90
5278;DHT22;2662;51.194;6.614;2024-02-23T09:53:25;10.70;99.90
5278;DHT22;2662;51.194;6.614;2024-02-23T09:55:53;11.70;99.90
5278;DHT22;2662;51.194;6.614;2024-02-23T09:58:25;11.30;99.90
5278;DHT22;2662;51.194;6.614;2024-02-23T10:00:56;11.00;99.90
5278;DHT22;2662;51.194;6.614;2024-02-23T10:03:24;10.80;99.90
5278;DHT22;2662;51.194;6.614;2024-02-23T10:05:56;10.70;99.90
5278;DHT22;2662;51.194;6.614;2024-02-23T10:08:24;10.60;99.90
5278;DHT22;2662;51.194;6.614;2024-02-23T10:10:52;10.50;99.90
5278;DHT22;2662;51.194;6.614;2024-02-23T10:13:19;10.50;99.90
5278;DHT22;2662;51.194;6.614;2024-02-23T10:15:47;10.60;99.90
5278;DHT22;2662;51.194;6.614;2024-02-23T10:18:14;10.70;99.90
5278;DHT22;2662;51.194;6.614;2024-02-23T10:20:41;10.60;99.90
5278;DHT22;2662;51.194;6.614;2024-02-23T10:23:09;10.60;99.90
5278;DHT22;2662;51.194;6.614;2024-02-23T10:25:37;10.80;99.90
5278;DHT22;2662;51.194;6.614;2024-02-23T10:28:05;10.90;99.90
5278;DHT22;2662;51.194;6.614;2024-02-23T10:30:36;10.80;99.90
5278;DHT22;2662;51.194;6.614;2024-02-23T10:33:05;10.60;99.90
5278;DHT22;2662;51.194;6.614;2024-02-23T10:35:32;10.30;99.90
5278;DHT22;2662;51.194;6.614;2024-02-23T10:38:01;10.30;99.90
5278;DHT22;2662;51.194;6.614;2024-02-23T10:40:31;10.40;99.90
5278;DHT22;2662;51.194;6.614;2024-02-23T10:43:06;10.30;99.90
5278;DHT22;2662;51.194;6.614;2024-02-23T10:45:36;10.30;99.90
5278;DHT22;2662;51.194;6.614;2024-02-23T10:48:03;10.20;99.90
5278;DHT22;2662;51.194;6.614;2024-02-23T10:50:31;10.30;99.90
5278;DHT22;2662;51.194;6.614;2024-02-23T10:53:00;10.20;99.90
5278;DHT22;2662;51.194;6.614;2024-02-23T10:55:30;10.20;99.90
5278;DHT22;2662;51.194;6.614;2024-02-23T10:57:58;10.20;99.90
5278;DHT22;2662;51.194;6.614;2024-02-23T11:00:35;10.00;99.90
5278;DHT22;2662;51.194;6.614;2024-02-23T11:03:03;10.10;99.90
5278;DHT22;2662;51.194;6.614;2024-02-23T11:05:31;10.00;99.90
5278;DHT22;2662;51.194;6.614;2024-02-23T11:07:58;10.00;99.90
5278;DHT22;2662;51.194;6.614;2024-02-23T11:10:27;10.00;99.90
5278;DHT22;2662;51.194;6.614;2024-02-23T11:13:00;10.10;99.90
5278;DHT22;2662;51.194;6.614;2024-02-23T11:15:29;10.20;99.90
5278;DHT22;2662;51.194;6.614;2024-02-23T11:17:57;10.30;99.90
5278;DHT22;2662;51.194;6.614;2024-02-23T11:20:33;10.40;99.90
5278;DHT22;2662;51.194;6.614;2024-02-23T11:23:00;10.60;99.90
5278;DHT22;2662;51.194;6.614;2024-02-23T11:25:27;10.90;99.90
5278;DHT22;2662;51.194;6.614;2024-02-23T11:27:54;11.00;99.90
5278;DHT22;2662;51.194;6.614;2024-02-23T11:30:23;11.00;99.90
5278;DHT22;2662;51.194;6.614;2024-02-23T11:33:00;10.80;99.90
5278;DHT22;2662;51.194;6.614;2024-02-23T11:35:27;10.60;99.90
5278;DHT22;2662;51.194;6.614;2024-02-23T11:37:56;10.80;99.90
5278;DHT22;2662;51.194;6.614;2024-02-23T11:40:26;10.90;99.90
5278;DHT22;2662;51.194;6.614;2024-02-23T11:42:54;11.00;99.90
5278;DHT22;2662;51.194;6.614;2024-02-23T11:45:21;10.90;99.90
5278;DHT22;2662;51.194;6.614;2024-02-23T11:47:49;10.70;99.90
5278;DHT22;2662;51.194;6.614;2024-02-23T11:50:18;10.70;99.90
5278;DHT22;2662;51.194;6.614;2024-02-23T11:52:46;10.70;99.90
5278;DHT22;2662;51.194;6.614;2024-02-23T11:55:18;10.60;99.90
5278;DHT22;2662;51.194;6.614;2024-02-23T11:57:48;10.70;99.90
5278;DHT22;2662;51.194;6.614;2024-02-23T12:00:16;10.70;99.90
5278;DHT22;2662;51.194;6.614;2024-02-23T12:02:43;10.70;99.90
5278;DHT22;2662;51.194;6.614;2024-02-23T12:05:13;10.80;99.90
5278;DHT22;2662;51.194;6.614;2024-02-23T12:07:44;11.00;99.90
5278;DHT22;2662;51.194;6.614;2024-02-23T12:10:12;11.10;99.90
5278;DHT22;2662;51.194;6.614;2024-02-23T12:12:40;11.20;99.90
5278;DHT22;2662;51.194;6.614;2024-02-23T12:15:08;11.30;99.90
5278;DHT22;2662;51.194;6.614;2024-02-23T12:17:36;11.40;99.90
5278;DHT22;2662;51.194;6.614;2024-02-23T12:20:04;11.40;99.90
5278;DHT22;2662;51.194;6.614;2024-02-23T12:22:34;11.30;99.90
5278;DHT22;2662;51.194;6.614;2024-02-23T12:25:07;11.30;99.90
5278;DHT22;2662;51.194;6.614;2024-02-23T12:27:35;11.20;99.90
5278;DHT22;2662;51.194;6.614;2024-02-23T12:30:12;11.40;99.90
5278;DHT22;2662;51.194;6.614;2024-02-23T12:32:41;11.70;99.90
5278;DHT22;2662;51.194;6.614;2024-02-23T12:35:12;11.80;99.90
5278;DHT22;2662;51.194;6.614;2024-02-23T12:37:39;11.90;99.90
5278;DHT22;2662;51.194;6.614;2024-02-23T12:40:10;11.90;99.90
5278;DHT22;2662;51.194;6.614;2024-02-23T12:42:38;11.90;99.90
5278;DHT22;2662;51.194;6.614;2024-02-23T12:45:05;12.00;99.90
5278;DHT22;2662;51.194;6.614;2024-02-23T12:47:33;12.20;99.90
5278;DHT22;2662;51.194;6.614;2024-02-23T12:50:01;12.00;99.90
5278;DHT22;2662;51.194;6.614;2024-02-23T12:52:29;11.90;99.90
5278;DHT22;2662;51.194;6.614;2024-02-23T12:54:56;11.90;99.90
5278;DHT22;2662;51.194;6.614;2024-02-23T12:57:24;11.90;99.90
5278;DHT22;2662;51.194;6.614;2024-02-23T12:59:53;11.90;99.90
5278;DHT22;2662;51.194;6.614;2024-02-23T13:02:23;11.80;99.90
5278;DHT22;2662;51.194;6.614;2024-02-23T13:04:50;12.00;99.90
5278;DHT22;2662;51.194;6.614;2024-02-23T13:07:17;12.20;99.90
5278;DHT22;2662;51.194;6.614;2024-02-23T13:09:45;12.00;99.90
5278;DHT22;2662;51.194;6.614;2024-02-23T13:12:14;12.10;99.90
5278;DHT22;2662;51.194;6.614;2024-02-23T13:14:44;12.10;99.90
5278;DHT22;2662;51.194;6.614;2024-02-23T13:17:11;11.90;99.90
5278;DHT22;2662;51.194;6.614;2024-02-23T13:19:40;12.00;99.90
5278;DHT22;2662;51.194;6.614;2024-02-23T13:22:07;12.10;99.90
5278;DHT22;2662;51.194;6.614;2024-02-23T13:24:34;12.40;99.90
5278;DHT22;2662;51.194;6.614;2024-02-23T13:27:01;12.70;99.90
5278;DHT22;2662;51.194;6.614;2024-02-23T13:29:28;12.80;99.90
5278;DHT22;2662;51.194;6.614;2024-02-23T13:31:57;13.10;99.90
5278;DHT22;2662;51.194;6.614;2024-02-23T13:34:25;13.20;99.90
5278;DHT22;2662;51.194;6.614;2024-02-23T13:36:52;13.30;99.90
5278;DHT22;2662;51.194;6.614;2024-02-23T13:39:28;13.40;99.90
5278;DHT22;2662;51.194;6.614;2024-02-23T13:41:55;13.60;99.90
5278;DHT22;2662;51.194;6.614;2024-02-23T13:44:22;13.60;99.90
5278;DHT22;2662;51.194;6.614;2024-02-23T13:46:49;13.40;99.90
5278;DHT22;2662;51.194;6.614;2024-02-23T13:49:26;13.30;99.90
5278;DHT22;2662;51.194;6.614;2024-02-23T13:51:53;13.20;99.90
5278;DHT22;2662;51.194;6.614;2024-02-23T13:54:22;13.10;99.90
5278;DHT22;2662;51.194;6.614;2024-02-23T13:56:52;13.20;99.90
5278;DHT22;2662;51.194;6.614;2024-02-23T13:59:20;13.10;99.90
5278;DHT22;2662;51.194;6.614;2024-02-23T14:01:49;12.80;99.90
5278;DHT22;2662;51.194;6.614;2024-02-23T14:04:16;12.70;99.90
5278;DHT22;2662;51.194;6.614;2024-02-23T14:06:47;12.80;99.90
5278;DHT22;2662;51.194;6.614;2024-02-23T14:09:14;12.90;99.90
5278;DHT22;2662;51.194;6.614;2024-02-23T14:11:43;12.90;99.90
5278;DHT22;2662;51.194;6.614;2024-02-23T14:14:12;12.80;99.90
5278;DHT22;2662;51.194;6.614;2024-02-23T14:16:39;12.70;99.90
5278;DHT22;2662;51.194;6.614;2024-02-23T14:19:06;12.50;99.90
5278;DHT22;2662;51.194;6.614;2024-02-23T14:21:34;12.40;99.90
5278;DHT22;2662;51.194;6.614;2024-02-23T14:24:05;12.40;99.90
5278;DHT22;2662;51.194;6.614;2024-02-23T14:26:33;12.30;99.90
5278;DHT22;2662;51.194;6.614;2024-02-23T14:29:00;12.20;99.90
5278;DHT22;2662;51.194;6.614;2024-02-23T14:31:28;12.10;99.90
5278;DHT22;2662;51.194;6.614;2024-02-23T14:33:55;12.20;99.90
5278;DHT22;2662;51.194;6.614;2024-02-23T14:36:23;12.20;99.90
5278;DHT22;2662;51.194;6.614;2024-02-23T14:38:50;12.30;99.90
5278;DHT22;2662;51.194;6.614;2024-02-23T14:41:18;12.30;99.90
5278;DHT22;2662;51.194;6.614;2024-02-23T14:43:45;12.30;99.90
5278;DHT22;2662;51.194;6.614;2024-02-23T14:46:12;12.20;99.90
5278;DHT22;2662;51.194;6.614;2024-02-23T14:48:43;12.10;99.90
5278;DHT22;2662;51.194;6.614;2024-02-23T14:51:14;11.90;99.90
5278;DHT22;2662;51.194;6.614;2024-02-23T14:53:41;11.80;99.90
5278;DHT22;2662;51.194;6.614;2024-02-23T14:56:08;11.60;99.90
5278;DHT22;2662;51.194;6.614;2024-02-23T14:58:36;11.50;99.90
5278;DHT22;2662;51.194;6.614;2024-02-23T15:01:03;11.50;99.90
5278;DHT22;2662;51.194;6.614;2024-02-23T15:03:31;11.50;99.90
5278;DHT22;2662;51.194;6.614;2024-02-23T15:05:58;11.40;99.90
5278;DHT22;2662;51.194;6.614;2024-02-23T15:08:28;11.50;99.90
5278;DHT22;2662;51.194;6.614;2024-02-23T15:10:56;11.60;99.90
5278;DHT22;2662;51.194;6.614;2024-02-23T15:13:25;11.60;99.90
5278;DHT22;2662;51.194;6.614;2024-02-23T15:15:54;11.50;99.90
5278;DHT22;2662;51.194;6.614;2024-02-23T15:18:23;11.50;99.90
5278;DHT22;2662;51.194;6.614;2024-02-23T15:20:51;11.40;99.90
5278;DHT22;2662;51.194;6.614;2024-02-23T15:23:20;11.40;99.90
5278;DHT22;2662;51.194;6.614;2024-02-23T15:25:49;11.40;99.90
5278;DHT22;2662;51.194;6.614;2024-02-23T15:28:22;11.30;99.90
5278;DHT22;2662;51.194;6.614;2024-02-23T15:30:50;11.30;99.90
5278;DHT22;2662;51.194;6.614;2024-02-23T15:33:19;11.30;99.90
5278;DHT22;2662;51.194;6.614;2024-02-23T15:35:46;11.20;99.90
5278;DHT22;2662;51.194;6.614;2024-02-23T15:38:15;11.10;99.90
5278;DHT22;2662;51.194;6.614;2024-02-23T15:40:42;11.00;99.90
5278;DHT22;2662;51.194;6.614;2024-02-23T15:43:11;10.80;99.90
5278;DHT22;2662;51.194;6.614;2024-02-23T15:45:38;10.60;99.90
5278;DHT22;2662;51.194;6.614;2024-02-23T15:48:05;10.40;99.90
5278;DHT22;2662;51.194;6.614;2024-02-23T15:50:34;10.40;99.90
5278;DHT22;2662;51.194;6.614;2024-02-23T15:53:01;10.40;99.90
5278;DHT22;2662;51.194;6.614;2024-02-23T15:55:30;10.50;99.90
5278;DHT22;2662;51.194;6.614;2024-02-23T15:57:57;10.70;99.90
5278;DHT22;2662;51.194;6.614;2024-02-23T16:00:24;10.80;99.90
5278;DHT22;2662;51.194;6.614;2024-02-23T16:02:51;10.80;99.90
5278;DHT22;2662;51.194;6.614;2024-02-23T16:05:17;10.70;99.90
5278;DHT22;2662;51.194;6.614;2024-02-23T16:07:46;10.50;99.90
5278;DHT22;2662;51.194;6.614;2024-02-23T16:10:14;10.50;99.90
5278;DHT22;2662;51.194;6.614;2024-02-23T16:12:42;10.40;99.90
5278;DHT22;2662;51.194;6.614;2024-02-23T16:15:15;10.30;99.90